Cincinnati, OH

7:46 PM EST on February 24, 2017 (GMT -0500)
Norwood | | Change Station
Active Advisory: Severe Thunderstorm Watch

Elev 620 ft 39.15 °N, 84.45 °W | Updated 17 seconds ago

Overcast
Overcast
73.8 °F
Feels Like 77 °F
N
3.0
Wind Variable Wind from South

Today
High -- | Low -- °F
--% Chance of Precip.
Yesterday
High -- | Low -- °F
Precip. -- in
Pressure 29.52 in
Visibility 10.0 miles
Clouds Few 9000 ft
Heat Index 77 °F
Dew Point 54 °F
Humidity 50%
Rainfall 0.00 in
Snow Depth Not available.
7:17 AM 6:25 PM
Waning Crescent, 3% visible
METAR KLUK 242353Z 17007KT 10SM FEW090 22/11 A2953 RMK AO2 LTG DSNT W AND NW SLP995 T02220111 10261 20217 58007
Pressure 29.52 in
Visibility 10.0 miles
Clouds Few 9000 ft
Heat Index 77 °F
Dew Point 54 °F
Humidity 50%
Rainfall 0.00 in
Snow Depth Not available.
7:17 AM 6:25 PM
Waning Crescent, 3% visible
METAR KLUK 242353Z 17007KT 10SM FEW090 22/11 A2953 RMK AO2 LTG DSNT W AND NW SLP995 T02220111 10261 20217 58007

Get Your Daily Forecast Email!

Thanks for signing up!

Be on the lookout for a verification email in your inbox.

You'll start receiving the daily forecast at 8 AM.

×

10-Day Weather Forecast

Almanac

Astronomy

Feb. 24, 2017 Rise Set
Actual Time
Civil Twilight
Nautical Twilight
Astronomical Twilight
Moon
Length of Visible Light
Length of Day
Tomorrow will be .
, % of the Moon is Illuminated

Today's Extremes

State Highs State Lows

Community

WunderPhotos

Upload Photos

1,962,540 photos uploaded!

WunderBlog® & News

Nearby

Air Quality

  Air Quality AQ Index Pollutant
Not available.

Snow Depth

Station Depth Elevation

Earthquake Activity

City Distance Mag. Time & Date
Minimum magnitude displayed is 2.5.

Coastal Water Temperatures

Place Temperature

Stations

Nearby Weather Stations

Station Location Temp. Windchill Dew Point Humidity Wind Precip. Elev Updated Type
                   

Watches & Warnings

Severe Thunderstorm Watch
Issued: 7:24 PM EST Feb. 24, 2017 – National Weather Service

Severe Thunderstorm Watch 38 remains in effect until 200 am EST

OH
. Ohio counties included are

Adams Ashland Auglaize
Brown Butler Champaign
Clark Clermont Clinton
Crawford Cuyahoga Darke
Delaware Erie Fairfield
Fayette Franklin Greene
Hamilton Hancock Hardin
Highland Hocking Holmes
Huron Knox Licking
Logan Lorain Lucas
Madison Marion Medina
Mercer Miami Montgomery
Morrow Ottawa Pickaway
Pike Preble Richland
Ross Sandusky Scioto
Seneca Shelby Union
Warren Wayne wood
Wyandot